^^
Station Historical Data
Daily Summary for March 4, 2017 Units:  Both    English   Metric
« Previous Day
Next Day »
Daily Weekly Monthly Yearly Custom
  High: Low: Average:
Temperature: 78.1 °F /  25.6 °C 58.5 °F /  14.7 °C 65.8 °F /  18.8 °C
Dew Point: 63.1 °F /  17.3 °C 57.0 °F /  13.9 °C 59.9 °F /  15.5 °C
Humidity: 97% 55% 83%
Wind Speed: 4.0mph /  6.4km/h - 0.3mph /  0.5km/h
Wind Gust: 8.0mph /  12.9km/h - -
Wind- - SSW
Pressure: 29.78 in /  1008.4 hPa 29.67 in /  1004.6 hPa -
Precipitation: 0.00 in /  0 mm    
Historical Graphs
 
 
Tabular Data for March 4, 2017
Time Temperature Dew Point Pressure Wind Wind Speed Wind Gust Humidity Rainfall Rate (Hourly) solar Conditions
00:05 60.3 °F /  15.7 °C 58.8 °F /  14.9 °C 29.78in /  1008.4hPa Calm   1.0mph /  1.6km/h 95% 0.00in /  0mm 0.0 W/m2
00:11 60.3 °F /  15.7 °C 58.8 °F /  14.9 °C 29.78in /  1008.4hPa Calm   1.0mph /  1.6km/h 95% 0.00in /  0mm 0.0 W/m2
00:17 60.3 °F /  15.7 °C 58.8 °F /  14.9 °C 29.78in /  1008.4hPa Calm     95% 0.00in /  0mm 0.0 W/m2
00:23 60.3 °F /  15.7 °C 58.8 °F /  14.9 °C 29.78in /  1008.4hPa Calm   1.0mph /  1.6km/h 95% 0.00in /  0mm 0.0 W/m2
00:29 60.3 °F /  15.7 °C 58.8 °F /  14.9 °C 29.78in /  1008.4hPa Calm   1.0mph /  1.6km/h 95% 0.00in /  0mm 0.0 W/m2
00:35 60.3 °F /  15.7 °C 58.8 °F /  14.9 °C 29.78in /  1008.4hPa Calm     95% 0.00in /  0mm 0.0 W/m2
00:41 60.3 °F /  15.7 °C 58.8 °F /  14.9 °C 29.78in /  1008.4hPa Calm     95% 0.00in /  0mm 0.0 W/m2
00:48 60.3 °F /  15.7 °C 58.8 °F /  14.9 °C 29.78in /  1008.4hPa Calm     95% 0.00in /  0mm 0.0 W/m2
00:54 60.3 °F /  15.7 °C 58.8 °F /  14.9 °C 29.78in /  1008.4hPa Calm   1.0mph /  1.6km/h 95% 0.00in /  0mm 0.0 W/m2
01:00 60.3 °F /  15.7 °C 58.8 °F /  14.9 °C 29.78in /  1008.4hPa Calm     95% 0.00in /  0mm 0.0 W/m2
01:06 60.3 °F /  15.7 °C 58.8 °F /  14.9 °C 29.78in /  1008.4hPa Calm   2.0mph /  3.2km/h 95% 0.00in /  0mm 0.0 W/m2
01:12 60.1 °F /  15.6 °C 58.6 °F /  14.8 °C 29.77in /  1008hPa Calm     95% 0.00in /  0mm 0.0 W/m2
01:18 60.1 °F /  15.6 °C 58.6 °F /  14.8 °C 29.77in /  1008hPa Calm     95% 0.00in /  0mm 0.0 W/m2
01:24 60.1 °F /  15.6 °C 58.6 °F /  14.8 °C 29.77in /  1008hPa Calm     95% 0.00in /  0mm 0.0 W/m2
01:30 60.3 °F /  15.7 °C 58.8 °F /  14.9 °C 29.77in /  1008hPa Calm     95% 0.00in /  0mm 0.0 W/m2
01:36 60.3 °F /  15.7 °C 58.8 °F /  14.9 °C 29.77in /  1008hPa Calm     95% 0.00in /  0mm 0.0 W/m2
01:43 60.3 °F /  15.7 °C 58.8 °F /  14.9 °C 29.77in /  1008hPa Calm     95% 0.00in /  0mm 0.0 W/m2
01:49 60.3 °F /  15.7 °C 58.8 °F /  14.9 °C 29.76in /  1007.7hPa Calm     95% 0.00in /  0mm 0.0 W/m2
01:55 60.3 °F /  15.7 °C 58.8 °F /  14.9 °C 29.76in /  1007.7hPa Calm     95% 0.00in /  0mm 0.0 W/m2
02:01 60.4 °F /  15.8 °C 59.0 °F /  15 °C 29.76in /  1007.7hPa Calm     95% 0.00in /  0mm 0.0 W/m2
02:07 60.4 °F /  15.8 °C 59.0 °F /  15 °C 29.76in /  1007.7hPa Calm     95% 0.00in /  0mm 0.0 W/m2
02:13 60.4 °F /  15.8 °C 59.0 °F /  15 °C 29.75in /  1007.3hPa Calm     95% 0.00in /  0mm 0.0 W/m2
02:19 60.4 °F /  15.8 °C 59.0 °F /  15 °C 29.75in /  1007.3hPa Calm     95% 0.00in /  0mm 0.0 W/m2
02:25 60.6 °F /  15.9 °C 59.2 °F /  15.1 °C 29.75in /  1007.3hPa Calm     95% 0.00in /  0mm 0.0 W/m2
02:31 60.6 °F /  15.9 °C 59.2 °F /  15.1 °C 29.75in /  1007.3hPa Calm     95% 0.00in /  0mm 0.0 W/m2
02:38 60.6 °F /  15.9 °C 59.2 °F /  15.1 °C 29.75in /  1007.3hPa ENE 0.9mph /  1.4km/h 1.0mph /  1.6km/h 95% 0.00in /  0mm 0.0 W/m2
02:44 60.6 °F /  15.9 °C 59.2 °F /  15.1 °C 29.75in /  1007.3hPa Calm     95% 0.00in /  0mm 0.0 W/m2
02:50 60.6 °F /  15.9 °C 59.2 °F /  15.1 °C 29.75in /  1007.3hPa Calm     95% 0.00in /  0mm 0.0 W/m2
02:56 60.6 °F /  15.9 °C 59.2 °F /  15.1 °C 29.74in /  1007hPa Calm     95% 0.00in /  0mm 0.0 W/m2
03:02 60.6 °F /  15.9 °C 59.2 °F /  15.1 °C 29.74in /  1007hPa Calm     95% 0.00in /  0mm 0.0 W/m2
03:08 60.6 °F /  15.9 °C 59.2 °F /  15.1 °C 29.74in /  1007hPa Calm     95% 0.00in /  0mm 0.0 W/m2
03:14 60.4 °F /  15.8 °C 59.0 °F /  15 °C 29.74in /  1007hPa Calm     95% 0.00in /  0mm 0.0 W/m2
03:20 60.4 °F /  15.8 °C 59.0 °F /  15 °C 29.74in /  1007hPa Calm     95% 0.00in /  0mm 0.0 W/m2
03:26 60.4 °F /  15.8 °C 59.0 °F /  15 °C 29.74in /  1007hPa Calm     95% 0.00in /  0mm 0.0 W/m2
03:32 60.4 °F /  15.8 °C 59.0 °F /  15 °C 29.73in /  1006.7hPa Calm     95% 0.00in /  0mm 0.0 W/m2
03:38 60.4 °F /  15.8 °C 59.0 °F /  15 °C 29.73in /  1006.7hPa Calm     95% 0.00in /  0mm 0.0 W/m2
03:44 60.4 °F /  15.8 °C 59.0 °F /  15 °C 29.73in /  1006.7hPa Calm     95% 0.00in /  0mm 0.0 W/m2
03:50 60.4 °F /  15.8 °C 59.0 °F /  15 °C 29.73in /  1006.7hPa Calm     95% 0.00in /  0mm 0.0 W/m2
03:57 60.4 °F /  15.8 °C 59.0 °F /  15 °C 29.73in /  1006.7hPa Calm     95% 0.00in /  0mm 0.0 W/m2
04:03 60.4 °F /  15.8 °C 59.0 °F /  15 °C 29.72in /  1006.3hPa Calm     95% 0.00in /  0mm 0.0 W/m2
04:09 60.4 °F /  15.8 °C 59.0 °F /  15 °C 29.72in /  1006.3hPa Calm     95% 0.00in /  0mm 0.0 W/m2
04:15 60.4 °F /  15.8 °C 59.0 °F /  15 °C 29.72in /  1006.3hPa Calm     95% 0.00in /  0mm 0.0 W/m2
04:21 60.4 °F /  15.8 °C 59.0 °F /  15 °C 29.72in /  1006.3hPa Calm     95% 0.00in /  0mm 0.0 W/m2
04:27 60.4 °F /  15.8 °C 59.0 °F /  15 °C 29.72in /  1006.3hPa Calm     95% 0.00in /  0mm 0.0 W/m2
04:33 60.4 °F /  15.8 °C 59.0 °F /  15 °C 29.72in /  1006.3hPa Calm     95% 0.00in /  0mm 0.0 W/m2
04:39 60.4 °F /  15.8 °C 59.0 °F /  15 °C 29.72in /  1006.3hPa Calm     95% 0.00in /  0mm 0.0 W/m2
04:45 60.4 °F /  15.8 °C 59.0 °F /  15 °C 29.71in /  1006hPa Calm     95% 0.00in /  0mm 0.0 W/m2
04:51 60.4 °F /  15.8 °C 59.0 °F /  15 °C 29.71in /  1006hPa Calm     95% 0.00in /  0mm 0.0 W/m2
04:57 60.3 °F /  15.7 °C 58.8 °F /  14.9 °C 29.71in /  1006hPa Calm     95% 0.00in /  0mm 0.0 W/m2
05:03 60.3 °F /  15.7 °C 58.8 °F /  14.9 °C 29.71in /  1006hPa Calm     95% 0.00in /  0mm 0.0 W/m2
05:09 60.1 °F /  15.6 °C 58.6 °F /  14.8 °C 29.71in /  1006hPa Calm     95% 0.00in /  0mm 0.0 W/m2
05:15 60.1 °F /  15.6 °C 58.6 °F /  14.8 °C 29.71in /  1006hPa Calm     95% 0.00in /  0mm 0.0 W/m2
05:21 59.9 °F /  15.5 °C 58.5 °F /  14.7 °C 29.70in /  1005.6hPa Calm     95% 0.00in /  0mm 0.0 W/m2
05:27 59.7 °F /  15.4 °C 58.3 °F /  14.6 °C 29.70in /  1005.6hPa Calm     95% 0.00in /  0mm 0.0 W/m2
05:33 59.7 °F /  15.4 °C 58.3 °F /  14.6 °C 29.70in /  1005.6hPa Calm     95% 0.00in /  0mm 0.0 W/m2
05:39 59.5 °F /  15.3 °C 58.1 °F /  14.5 °C 29.70in /  1005.6hPa Calm     95% 0.00in /  0mm 0.0 W/m2
05:45 59.5 °F /  15.3 °C 58.1 °F /  14.5 °C 29.70in /  1005.6hPa Calm     95% 0.00in /  0mm 0.0 W/m2
05:51 59.4 °F /  15.2 °C 57.9 °F /  14.4 °C 29.70in /  1005.6hPa Calm     95% 0.00in /  0mm 0.0 W/m2
05:57 59.4 °F /  15.2 °C 57.9 °F /  14.4 °C 29.71in /  1006hPa Calm     95% 0.00in /  0mm 0.0 W/m2
06:03 59.2 °F /  15.1 °C 57.7 °F /  14.3 °C 29.70in /  1005.6hPa Calm     95% 0.00in /  0mm 0.0 W/m2
06:09 59.2 °F /  15.1 °C 57.7 °F /  14.3 °C 29.70in /  1005.6hPa Calm     95% 0.00in /  0mm 0.0 W/m2
06:15 59.0 °F /  15 °C 57.6 °F /  14.2 °C 29.71in /  1006hPa Calm     95% 0.00in /  0mm 0.0 W/m2
06:21 58.8 °F /  14.9 °C 57.4 °F /  14.1 °C 29.70in /  1005.6hPa Calm     95% 0.00in /  0mm 0.0 W/m2
06:27 58.8 °F /  14.9 °C 57.4 °F /  14.1 °C 29.70in /  1005.6hPa Calm     95% 0.00in /  0mm 0.0 W/m2
06:33 58.8 °F /  14.9 °C 57.4 °F /  14.1 °C 29.70in /  1005.6hPa Calm     95% 0.00in /  0mm 0.0 W/m2
06:39 58.6 °F /  14.8 °C 57.2 °F /  14 °C 29.71in /  1006hPa Calm     95% 0.00in /  0mm 0.0 W/m2
06:45 58.6 °F /  14.8 °C 57.2 °F /  14 °C 29.71in /  1006hPa Calm     95% 0.00in /  0mm 0.0 W/m2
06:51 58.6 °F /  14.8 °C 57.2 °F /  14 °C 29.70in /  1005.6hPa Calm     95% 0.00in /  0mm 0.0 W/m2
06:57 58.5 °F /  14.7 °C 57.0 °F /  13.9 °C 29.70in /  1005.6hPa Calm     95% 0.00in /  0mm 7.0 W/m2
07:03 58.5 °F /  14.7 °C 57.0 °F /  13.9 °C 29.70in /  1005.6hPa Calm     95% 0.00in /  0mm 12.0 W/m2
07:09 58.5 °F /  14.7 °C 57.4 °F /  14.1 °C 29.70in /  1005.6hPa Calm     96% 0.00in /  0mm 16.0 W/m2
07:15 58.5 °F /  14.7 °C 57.4 °F /  14.1 °C 29.70in /  1005.6hPa Calm     96% 0.00in /  0mm 19.0 W/m2
07:19 58.6 °F /  14.8 °C 57.6 °F /  14.2 °C 29.70in /  1005.6hPa Calm     96% 0.00in /  0mm 21.0 W/m2
07:25 58.6 °F /  14.8 °C 57.6 °F /  14.2 °C 29.71in /  1006hPa ENE 0.9mph /  1.4km/h 1.0mph /  1.6km/h 96% 0.00in /  0mm 25.0 W/m2
07:31 59.0 °F /  15 °C 57.9 °F /  14.4 °C 29.71in /  1006hPa Calm     96% 0.00in /  0mm 28.0 W/m2
07:37 59.2 °F /  15.1 °C 58.1 °F /  14.5 °C 29.70in /  1005.6hPa Calm     96% 0.00in /  0mm 28.0 W/m2
07:43 59.5 °F /  15.3 °C 58.5 °F /  14.7 °C 29.70in /  1005.6hPa Calm     96% 0.00in /  0mm 21.0 W/m2
07:49 59.7 °F /  15.4 °C 58.8 °F /  14.9 °C 29.70in /  1005.6hPa Calm     97% 0.00in /  0mm 19.0 W/m2
07:55 60.1 °F /  15.6 °C 59.2 °F /  15.1 °C 29.71in /  1006hPa Calm     97% 0.00in /  0mm 32.0 W/m2
08:01 60.3 °F /  15.7 °C 59.2 °F /  15.1 °C 29.71in /  1006hPa Calm     96% 0.00in /  0mm 26.0 W/m2
08:07 60.4 °F /  15.8 °C 59.5 °F /  15.3 °C 29.71in /  1006hPa Calm     97% 0.00in /  0mm 23.0 W/m2
08:13 60.6 °F /  15.9 °C 59.7 °F /  15.4 °C 29.72in /  1006.3hPa Calm   1.0mph /  1.6km/h 97% 0.00in /  0mm 25.0 W/m2
08:19 60.8 °F /  16 °C 59.7 °F /  15.4 °C 29.72in /  1006.3hPa Calm     96% 0.00in /  0mm 37.0 W/m2
08:25 61.2 °F /  16.2 °C 60.3 °F /  15.7 °C 29.72in /  1006.3hPa Calm   2.0mph /  3.2km/h 97% 0.00in /  0mm 47.0 W/m2
08:31 61.3 °F /  16.3 °C 60.3 °F /  15.7 °C 29.72in /  1006.3hPa Calm   1.0mph /  1.6km/h 96% 0.00in /  0mm 26.0 W/m2
08:37 61.3 °F /  16.3 °C 60.3 °F /  15.7 °C 29.72in /  1006.3hPa Calm   1.0mph /  1.6km/h 96% 0.00in /  0mm 33.0 W/m2
08:43 61.5 °F /  16.4 °C 60.4 °F /  15.8 °C 29.72in /  1006.3hPa Calm   1.0mph /  1.6km/h 96% 0.00in /  0mm 37.0 W/m2
08:49 61.9 °F /  16.6 °C 60.8 °F /  16 °C 29.72in /  1006.3hPa Calm     96% 0.00in /  0mm 46.0 W/m2
08:55 62.1 °F /  16.7 °C 60.6 °F /  15.9 °C 29.72in /  1006.3hPa West 0.9mph /  1.4km/h 1.0mph /  1.6km/h 95% 0.00in /  0mm 229.0 W/m2
09:01 62.2 °F /  16.8 °C 60.4 °F /  15.8 °C 29.72in /  1006.3hPa Calm   2.0mph /  3.2km/h 94% 0.00in /  0mm 56.0 W/m2
09:07 62.8 °F /  17.1 °C 61.0 °F /  16.1 °C 29.72in /  1006.3hPa Calm     94% 0.00in /  0mm 102.0 W/m2
09:13 63.3 °F /  17.4 °C 61.5 °F /  16.4 °C 29.73in /  1006.7hPa Calm   1.0mph /  1.6km/h 94% 0.00in /  0mm 104.0 W/m2
09:19 63.9 °F /  17.7 °C 61.5 °F /  16.4 °C 29.73in /  1006.7hPa WSW 0.9mph /  1.4km/h 2.0mph /  3.2km/h 92% 0.00in /  0mm 295.0 W/m2
09:25 64.6 °F /  18.1 °C 61.3 °F /  16.3 °C 29.73in /  1006.7hPa Calm   4.0mph /  6.4km/h 89% 0.00in /  0mm 628.0 W/m2
09:31 65.3 °F /  18.5 °C 61.3 °F /  16.3 °C 29.73in /  1006.7hPa NNW 2.0mph /  3.2km/h 2.0mph /  3.2km/h 87% 0.00in /  0mm 677.0 W/m2
09:37 66.4 °F /  19.1 °C 61.7 °F /  16.5 °C 29.73in /  1006.7hPa NW 0.9mph /  1.4km/h 3.0mph /  4.8km/h 85% 0.00in /  0mm 726.0 W/m2
09:43 66.9 °F /  19.4 °C 61.2 °F /  16.2 °C 29.73in /  1006.7hPa WSW 0.9mph /  1.4km/h 3.0mph /  4.8km/h 82% 0.00in /  0mm 770.0 W/m2
09:49 67.5 °F /  19.7 °C 61.7 °F /  16.5 °C 29.73in /  1006.7hPa Calm   3.0mph /  4.8km/h 82% 0.00in /  0mm 737.0 W/m2
09:55 68.4 °F /  20.2 °C 61.9 °F /  16.6 °C 29.73in /  1006.7hPa North 2.9mph /  4.7km/h 4.0mph /  6.4km/h 80% 0.00in /  0mm 782.0 W/m2
10:01 69.4 °F /  20.8 °C 62.2 °F /  16.8 °C 29.73in /  1006.7hPa West 2.0mph /  3.2km/h 3.0mph /  4.8km/h 78% 0.00in /  0mm 782.0 W/m2
10:07 70.2 °F /  21.2 °C 62.2 °F /  16.8 °C 29.73in /  1006.7hPa Calm   4.0mph /  6.4km/h 76% 0.00in /  0mm 225.0 W/m2
10:13 70.3 °F /  21.3 °C 62.1 °F /  16.7 °C 29.73in /  1006.7hPa Calm   1.0mph /  1.6km/h 75% 0.00in /  0mm 153.0 W/m2
10:19 70.7 °F /  21.5 °C 62.1 °F /  16.7 °C 29.73in /  1006.7hPa Calm   2.0mph /  3.2km/h 74% 0.00in /  0mm 348.0 W/m2
10:25 71.1 °F /  21.7 °C 61.5 °F /  16.4 °C 29.73in /  1006.7hPa East 0.9mph /  1.4km/h 1.0mph /  1.6km/h 72% 0.00in /  0mm 835.0 W/m2
10:31 72.0 °F /  22.2 °C 62.4 °F /  16.9 °C 29.73in /  1006.7hPa West 2.0mph /  3.2km/h 2.0mph /  3.2km/h 72% 0.00in /  0mm 882.0 W/m2
10:37 72.3 °F /  22.4 °C 61.5 °F /  16.4 °C 29.73in /  1006.7hPa SW 0.9mph /  1.4km/h 3.0mph /  4.8km/h 69% 0.00in /  0mm 962.0 W/m2
10:43 72.7 °F /  22.6 °C 61.5 °F /  16.4 °C 29.73in /  1006.7hPa Calm   2.0mph /  3.2km/h 68% 0.00in /  0mm 786.0 W/m2
10:49 73.0 °F /  22.8 °C 62.6 °F /  17 °C 29.73in /  1006.7hPa West 0.9mph /  1.4km/h 2.0mph /  3.2km/h 70% 0.00in /  0mm 932.0 W/m2
10:55 73.6 °F /  23.1 °C 62.4 °F /  16.9 °C 29.73in /  1006.7hPa Calm   5.0mph /  8km/h 68% 0.00in /  0mm 983.0 W/m2
11:01 74.3 °F /  23.5 °C 61.7 °F /  16.5 °C 29.73in /  1006.7hPa NNE 4.0mph /  6.4km/h 7.0mph /  11.3km/h 65% 0.00in /  0mm 974.0 W/m2
11:07 74.8 °F /  23.8 °C 61.9 °F /  16.6 °C 29.73in /  1006.7hPa North 4.0mph /  6.4km/h 4.0mph /  6.4km/h 64% 0.00in /  0mm 1007.0 W/m2
11:13 75.7 °F /  24.3 °C 63.1 °F /  17.3 °C 29.73in /  1006.7hPa NNW 0.9mph /  1.4km/h 2.0mph /  3.2km/h 65% 0.00in /  0mm 294.0 W/m2
11:19 75.6 °F /  24.2 °C 62.1 °F /  16.7 °C 29.73in /  1006.7hPa Calm   1.0mph /  1.6km/h 63% 0.00in /  0mm 181.0 W/m2
11:26 75.6 °F /  24.2 °C 62.1 °F /  16.7 °C 29.73in /  1006.7hPa Calm   1.0mph /  1.6km/h 63% 0.00in /  0mm 1076.0 W/m2
11:32 75.9 °F /  24.4 °C 61.9 °F /  16.6 °C 29.73in /  1006.7hPa Calm   4.0mph /  6.4km/h 62% 0.00in /  0mm 1136.0 W/m2
11:37 76.6 °F /  24.8 °C 62.2 °F /  16.8 °C 29.72in /  1006.3hPa Calm   4.0mph /  6.4km/h 61% 0.00in /  0mm 345.0 W/m2
11:43 76.8 °F /  24.9 °C 62.4 °F /  16.9 °C 29.72in /  1006.3hPa WNW 0.9mph /  1.4km/h 3.0mph /  4.8km/h 61% 0.00in /  0mm 323.0 W/m2
11:49 76.8 °F /  24.9 °C 61.3 °F /  16.3 °C 29.72in /  1006.3hPa Calm   5.0mph /  8km/h 59% 0.00in /  0mm 287.0 W/m2
11:55 76.3 °F /  24.6 °C 61.0 °F /  16.1 °C 29.72in /  1006.3hPa NNW 2.0mph /  3.2km/h 3.0mph /  4.8km/h 59% 0.00in /  0mm 257.0 W/m2
12:02 76.3 °F /  24.6 °C 60.4 °F /  15.8 °C 29.72in /  1006.3hPa Calm   2.0mph /  3.2km/h 58% 0.00in /  0mm 359.0 W/m2
12:08 76.3 °F /  24.6 °C 61.3 °F /  16.3 °C 29.72in /  1006.3hPa Calm   4.0mph /  6.4km/h 60% 0.00in /  0mm 417.0 W/m2
12:14 76.8 °F /  24.9 °C 61.0 °F /  16.1 °C 29.71in /  1006hPa Calm   4.0mph /  6.4km/h 58% 0.00in /  0mm 394.0 W/m2
12:20 77.4 °F /  25.2 °C 61.9 °F /  16.6 °C 29.71in /  1006hPa NW 2.0mph /  3.2km/h 2.0mph /  3.2km/h 59% 0.00in /  0mm 1209.0 W/m2
12:26 77.7 °F /  25.4 °C 61.7 °F /  16.5 °C 29.71in /  1006hPa NW 0.9mph /  1.4km/h 2.0mph /  3.2km/h 58% 0.00in /  0mm 292.0 W/m2
12:32 78.1 °F /  25.6 °C 61.2 °F /  16.2 °C 29.71in /  1006hPa Calm   1.0mph /  1.6km/h 56% 0.00in /  0mm 169.0 W/m2
12:38 77.5 °F /  25.3 °C 60.1 °F /  15.6 °C 29.70in /  1005.6hPa Calm   2.0mph /  3.2km/h 55% 0.00in /  0mm 174.0 W/m2
12:44 77.0 °F /  25 °C 61.5 °F /  16.4 °C 29.70in /  1005.6hPa Calm     59% 0.00in /  0mm 202.0 W/m2
12:50 76.6 °F /  24.8 °C 60.8 °F /  16 °C 29.70in /  1005.6hPa South 0.9mph /  1.4km/h 3.0mph /  4.8km/h 58% 0.00in /  0mm 241.0 W/m2
12:56 76.1 °F /  24.5 °C 60.8 °F /  16 °C 29.70in /  1005.6hPa Calm   3.0mph /  4.8km/h 59% 0.00in /  0mm 267.0 W/m2
13:02 75.9 °F /  24.4 °C 60.6 °F /  15.9 °C 29.70in /  1005.6hPa WSW 2.0mph /  3.2km/h 5.0mph /  8km/h 59% 0.00in /  0mm 276.0 W/m2
13:08 75.6 °F /  24.2 °C 60.3 °F /  15.7 °C 29.70in /  1005.6hPa Calm     59% 0.00in /  0mm 278.0 W/m2
13:14 75.7 °F /  24.3 °C 61.9 °F /  16.6 °C 29.69in /  1005.3hPa SW 2.9mph /  4.7km/h 7.0mph /  11.3km/h 62% 0.00in /  0mm 327.0 W/m2
13:20 75.9 °F /  24.4 °C 61.9 °F /  16.6 °C 29.69in /  1005.3hPa WSW 2.0mph /  3.2km/h 2.0mph /  3.2km/h 62% 0.00in /  0mm 1185.0 W/m2
13:26 76.3 °F /  24.6 °C 61.9 °F /  16.6 °C 29.69in /  1005.3hPa Calm   2.0mph /  3.2km/h 61% 0.00in /  0mm 171.0 W/m2
13:32 75.9 °F /  24.4 °C 61.0 °F /  16.1 °C 29.69in /  1005.3hPa Calm   3.0mph /  4.8km/h 60% 0.00in /  0mm 186.0 W/m2
13:38 75.6 °F /  24.2 °C 60.6 °F /  15.9 °C 29.68in /  1005hPa Calm   2.0mph /  3.2km/h 60% 0.00in /  0mm 183.0 W/m2
13:44 75.4 °F /  24.1 °C 60.4 °F /  15.8 °C 29.68in /  1005hPa WNW 0.9mph /  1.4km/h 2.0mph /  3.2km/h 60% 0.00in /  0mm 156.0 W/m2
13:50 74.8 °F /  23.8 °C 61.3 °F /  16.3 °C 29.68in /  1005hPa WSW 0.9mph /  1.4km/h 1.0mph /  1.6km/h 63% 0.00in /  0mm 105.0 W/m2
13:56 74.3 °F /  23.5 °C 62.2 °F /  16.8 °C 29.68in /  1005hPa Calm   2.0mph /  3.2km/h 66% 0.00in /  0mm 77.0 W/m2
14:02 73.8 °F /  23.2 °C 62.1 °F /  16.7 °C 29.68in /  1005hPa Calm   2.0mph /  3.2km/h 67% 0.00in /  0mm 77.0 W/m2
14:09 73.0 °F /  22.8 °C 61.5 °F /  16.4 °C 29.68in /  1005hPa Calm   1.0mph /  1.6km/h 67% 0.00in /  0mm 146.0 W/m2
14:15 72.7 °F /  22.6 °C 59.7 °F /  15.4 °C 29.68in /  1005hPa Calm   1.0mph /  1.6km/h 64% 0.00in /  0mm 160.0 W/m2
14:21 72.3 °F /  22.4 °C 59.5 °F /  15.3 °C 29.67in /  1004.6hPa North 0.9mph /  1.4km/h 3.0mph /  4.8km/h 64% 0.00in /  0mm 144.0 W/m2
14:27 72.1 °F /  22.3 °C 61.0 °F /  16.1 °C 29.68in /  1005hPa NE 2.0mph /  3.2km/h 2.0mph /  3.2km/h 68% 0.00in /  0mm 107.0 W/m2
14:33 71.8 °F /  22.1 °C 60.3 °F /  15.7 °C 29.68in /  1005hPa Calm   3.0mph /  4.8km/h 67% 0.00in /  0mm 93.0 W/m2
14:39 71.2 °F /  21.8 °C 59.7 °F /  15.4 °C 29.68in /  1005hPa Calm   3.0mph /  4.8km/h 67% 0.00in /  0mm 113.0 W/m2
14:45 70.9 °F /  21.6 °C 60.3 °F /  15.7 °C 29.69in /  1005.3hPa NW 0.9mph /  1.4km/h 4.0mph /  6.4km/h 69% 0.00in /  0mm 95.0 W/m2
14:52 70.3 °F /  21.3 °C 60.1 °F /  15.6 °C 29.69in /  1005.3hPa Calm   3.0mph /  4.8km/h 70% 0.00in /  0mm 127.0 W/m2
14:58 70.0 °F /  21.1 °C 60.1 °F /  15.6 °C 29.68in /  1005hPa Calm   5.0mph /  8km/h 71% 0.00in /  0mm 144.0 W/m2
15:04 69.6 °F /  20.9 °C 59.7 °F /  15.4 °C 29.68in /  1005hPa WNW 2.0mph /  3.2km/h 4.0mph /  6.4km/h 71% 0.00in /  0mm 141.0 W/m2
15:10 69.3 °F /  20.7 °C 59.5 °F /  15.3 °C 29.68in /  1005hPa NW 2.0mph /  3.2km/h 4.0mph /  6.4km/h 71% 0.00in /  0mm 127.0 W/m2
15:16 69.1 °F /  20.6 °C 59.7 °F /  15.4 °C 29.69in /  1005.3hPa Calm     72% 0.00in /  0mm 91.0 W/m2
15:22 68.9 °F /  20.5 °C 59.5 °F /  15.3 °C 29.69in /  1005.3hPa Calm     72% 0.00in /  0mm 67.0 W/m2
15:28 68.9 °F /  20.5 °C 59.9 °F /  15.5 °C 29.68in /  1005hPa Calm   1.0mph /  1.6km/h 73% 0.00in /  0mm 67.0 W/m2
15:35 68.7 °F /  20.4 °C 60.1 °F /  15.6 °C 29.68in /  1005hPa Calm   3.0mph /  4.8km/h 74% 0.00in /  0mm 113.0 W/m2
15:47 69.1 °F /  20.6 °C 59.7 °F /  15.4 °C 29.68in /  1005hPa Calm     72% 0.00in /  0mm 148.0 W/m2
15:53 69.1 °F /  20.6 °C 59.4 °F /  15.2 °C 29.67in /  1004.6hPa Calm     71% 0.00in /  0mm 144.0 W/m2
15:59 69.3 °F /  20.7 °C 59.5 °F /  15.3 °C 29.67in /  1004.6hPa Calm   1.0mph /  1.6km/h 71% 0.00in /  0mm 151.0 W/m2
16:05 69.4 °F /  20.8 °C 60.1 °F /  15.6 °C 29.67in /  1004.6hPa Calm   1.0mph /  1.6km/h 72% 0.00in /  0mm 151.0 W/m2
16:11 69.4 °F /  20.8 °C 59.2 °F /  15.1 °C 29.67in /  1004.6hPa Calm     70% 0.00in /  0mm 139.0 W/m2
16:17 69.6 °F /  20.9 °C 59.4 °F /  15.2 °C 29.67in /  1004.6hPa NNW 2.0mph /  3.2km/h 3.0mph /  4.8km/h 70% 0.00in /  0mm 125.0 W/m2
16:23 69.6 °F /  20.9 °C 59.7 °F /  15.4 °C 29.67in /  1004.6hPa NNE 2.0mph /  3.2km/h 4.0mph /  6.4km/h 71% 0.00in /  0mm 116.0 W/m2
16:29 69.4 °F /  20.8 °C 59.5 °F /  15.3 °C 29.67in /  1004.6hPa NNW 0.9mph /  1.4km/h 2.0mph /  3.2km/h 71% 0.00in /  0mm 114.0 W/m2
16:35 69.4 °F /  20.8 °C 59.5 °F /  15.3 °C 29.67in /  1004.6hPa Calm   1.0mph /  1.6km/h 71% 0.00in /  0mm 111.0 W/m2
16:41 69.3 °F /  20.7 °C 59.0 °F /  15 °C 29.67in /  1004.6hPa Calm   3.0mph /  4.8km/h 70% 0.00in /  0mm 95.0 W/m2
16:47 69.3 °F /  20.7 °C 59.9 °F /  15.5 °C 29.68in /  1005hPa Calm   2.0mph /  3.2km/h 72% 0.00in /  0mm 84.0 W/m2
16:53 69.1 °F /  20.6 °C 59.4 °F /  15.2 °C 29.68in /  1005hPa WSW 0.9mph /  1.4km/h 3.0mph /  4.8km/h 71% 0.00in /  0mm 77.0 W/m2
16:59 68.7 °F /  20.4 °C 59.4 °F /  15.2 °C 29.69in /  1005.3hPa Calm   8.0mph /  12.9km/h 72% 0.00in /  0mm 47.0 W/m2
17:05 68.4 °F /  20.2 °C 59.7 °F /  15.4 °C 29.69in /  1005.3hPa WSW 2.0mph /  3.2km/h 3.0mph /  4.8km/h 74% 0.00in /  0mm 42.0 W/m2
17:12 68.2 °F /  20.1 °C 59.9 °F /  15.5 °C 29.69in /  1005.3hPa Calm   2.0mph /  3.2km/h 75% 0.00in /  0mm 39.0 W/m2
17:18 67.8 °F /  19.9 °C 59.5 °F /  15.3 °C 29.68in /  1005hPa Calm     75% 0.00in /  0mm 44.0 W/m2
17:24 67.8 °F /  19.9 °C 59.5 °F /  15.3 °C 29.68in /  1005hPa Calm     75% 0.00in /  0mm 44.0 W/m2
17:30 67.6 °F /  19.8 °C 59.7 °F /  15.4 °C 29.69in /  1005.3hPa Calm   1.0mph /  1.6km/h 76% 0.00in /  0mm 49.0 W/m2
17:36 67.6 °F /  19.8 °C 59.7 °F /  15.4 °C 29.68in /  1005hPa Calm   2.0mph /  3.2km/h 76% 0.00in /  0mm 51.0 W/m2
17:42 67.6 °F /  19.8 °C 60.3 °F /  15.7 °C 29.68in /  1005hPa NE 0.9mph /  1.4km/h 3.0mph /  4.8km/h 77% 0.00in /  0mm 60.0 W/m2
17:48 67.6 °F /  19.8 °C 59.7 °F /  15.4 °C 29.68in /  1005hPa NE 0.9mph /  1.4km/h 4.0mph /  6.4km/h 76% 0.00in /  0mm 74.0 W/m2
17:54 67.6 °F /  19.8 °C 59.4 °F /  15.2 °C 29.68in /  1005hPa NE 4.0mph /  6.4km/h 5.0mph /  8km/h 75% 0.00in /  0mm 83.0 W/m2
18:00 67.5 °F /  19.7 °C 59.2 °F /  15.1 °C 29.68in /  1005hPa NNE 0.9mph /  1.4km/h 4.0mph /  6.4km/h 75% 0.00in /  0mm 105.0 W/m2
18:06 67.6 °F /  19.8 °C 59.7 °F /  15.4 °C 29.68in /  1005hPa NE 2.0mph /  3.2km/h 4.0mph /  6.4km/h 76% 0.00in /  0mm 204.0 W/m2
18:12 68.2 °F /  20.1 °C 60.3 °F /  15.7 °C 29.68in /  1005hPa Calm   2.0mph /  3.2km/h 76% 0.00in /  0mm 190.0 W/m2
18:18 68.7 °F /  20.4 °C 60.1 °F /  15.6 °C 29.68in /  1005hPa Calm   4.0mph /  6.4km/h 74% 0.00in /  0mm 144.0 W/m2
18:25 69.1 °F /  20.6 °C 60.4 °F /  15.8 °C 29.68in /  1005hPa NE 4.0mph /  6.4km/h 5.0mph /  8km/h 74% 0.00in /  0mm 218.0 W/m2
18:31 69.4 °F /  20.8 °C 60.4 °F /  15.8 °C 29.68in /  1005hPa NE 2.9mph /  4.7km/h 4.0mph /  6.4km/h 73% 0.00in /  0mm 181.0 W/m2
18:37 69.8 °F /  21 °C 60.4 °F /  15.8 °C 29.68in /  1005hPa NE 4.0mph /  6.4km/h 5.0mph /  8km/h 72% 0.00in /  0mm 114.0 W/m2
18:43 70.0 °F /  21.1 °C 60.6 °F /  15.9 °C 29.68in /  1005hPa NNE 2.9mph /  4.7km/h 4.0mph /  6.4km/h 72% 0.00in /  0mm 93.0 W/m2
18:49 70.0 °F /  21.1 °C 60.6 °F /  15.9 °C 29.68in /  1005hPa East 0.9mph /  1.4km/h 3.0mph /  4.8km/h 72% 0.00in /  0mm 70.0 W/m2
18:55 69.8 °F /  21 °C 60.8 °F /  16 °C 29.68in /  1005hPa Calm   3.0mph /  4.8km/h 73% 0.00in /  0mm 40.0 W/m2
19:01 69.6 °F /  20.9 °C 61.0 °F /  16.1 °C 29.69in /  1005.3hPa Calm   3.0mph /  4.8km/h 74% 0.00in /  0mm 14.0 W/m2
19:08 69.4 °F /  20.8 °C 60.4 °F /  15.8 °C 29.69in /  1005.3hPa Calm   1.0mph /  1.6km/h 73% 0.00in /  0mm 5.0 W/m2
19:14 69.4 °F /  20.8 °C 60.8 °F /  16 °C 29.70in /  1005.6hPa Calm     74% 0.00in /  0mm 0.0 W/m2
19:20 69.3 °F /  20.7 °C 60.6 °F /  15.9 °C 29.70in /  1005.6hPa Calm     74% 0.00in /  0mm 0.0 W/m2
19:26 69.1 °F /  20.6 °C 60.8 °F /  16 °C 29.70in /  1005.6hPa Calm     75% 0.00in /  0mm 0.0 W/m2
19:32 68.5 °F /  20.3 °C 60.6 °F /  15.9 °C 29.70in /  1005.6hPa Calm   2.0mph /  3.2km/h 76% 0.00in /  0mm 0.0 W/m2
19:38 68.4 °F /  20.2 °C 60.1 °F /  15.6 °C 29.70in /  1005.6hPa Calm   1.0mph /  1.6km/h 75% 0.00in /  0mm 0.0 W/m2
19:45 68.2 °F /  20.1 °C 60.6 °F /  15.9 °C 29.70in /  1005.6hPa Calm     77% 0.00in /  0mm 0.0 W/m2
19:51 67.8 °F /  19.9 °C 61.0 °F /  16.1 °C 29.70in /  1005.6hPa Calm   1.0mph /  1.6km/h 79% 0.00in /  0mm 0.0 W/m2
19:57 67.5 °F /  19.7 °C 61.2 °F /  16.2 °C 29.70in /  1005.6hPa Calm   1.0mph /  1.6km/h 80% 0.00in /  0mm 0.0 W/m2
20:03 67.3 °F /  19.6 °C 61.0 °F /  16.1 °C 29.70in /  1005.6hPa Calm   2.0mph /  3.2km/h 80% 0.00in /  0mm 0.0 W/m2
20:09 66.9 °F /  19.4 °C 61.0 °F /  16.1 °C 29.71in /  1006hPa Calm   1.0mph /  1.6km/h 81% 0.00in /  0mm 0.0 W/m2
20:15 66.6 °F /  19.2 °C 61.0 °F /  16.1 °C 29.71in /  1006hPa Calm     82% 0.00in /  0mm 0.0 W/m2
20:21 66.4 °F /  19.1 °C 61.0 °F /  16.1 °C 29.71in /  1006hPa Calm     83% 0.00in /  0mm 0.0 W/m2
20:28 66.2 °F /  19 °C 60.6 °F /  15.9 °C 29.71in /  1006hPa Calm     82% 0.00in /  0mm 0.0 W/m2
20:34 66.0 °F /  18.9 °C 60.6 °F /  15.9 °C 29.72in /  1006.3hPa Calm     83% 0.00in /  0mm 0.0 W/m2
20:40 65.8 °F /  18.8 °C 60.6 °F /  15.9 °C 29.72in /  1006.3hPa Calm     83% 0.00in /  0mm 0.0 W/m2
20:46 65.7 °F /  18.7 °C 60.6 °F /  15.9 °C 29.72in /  1006.3hPa Calm     84% 0.00in /  0mm 0.0 W/m2
20:52 65.5 °F /  18.6 °C 60.4 °F /  15.8 °C 29.72in /  1006.3hPa Calm     84% 0.00in /  0mm 0.0 W/m2
20:58 65.3 °F /  18.5 °C 60.6 °F /  15.9 °C 29.73in /  1006.7hPa Calm     85% 0.00in /  0mm 0.0 W/m2
21:04 65.1 °F /  18.4 °C 60.4 °F /  15.8 °C 29.73in /  1006.7hPa Calm     85% 0.00in /  0mm 0.0 W/m2
21:11 65.1 °F /  18.4 °C 60.4 °F /  15.8 °C 29.74in /  1007hPa Calm     85% 0.00in /  0mm 0.0 W/m2
21:17 64.9 °F /  18.3 °C 60.6 °F /  15.9 °C 29.75in /  1007.3hPa Calm     86% 0.00in /  0mm 0.0 W/m2
21:23 64.8 °F /  18.2 °C 60.4 °F /  15.8 °C 29.75in /  1007.3hPa Calm     86% 0.00in /  0mm 0.0 W/m2
21:29 64.8 °F /  18.2 °C 60.8 °F /  16 °C 29.75in /  1007.3hPa Calm     87% 0.00in /  0mm 0.0 W/m2
21:35 64.6 °F /  18.1 °C 60.6 °F /  15.9 °C 29.76in /  1007.7hPa Calm     87% 0.00in /  0mm 0.0 W/m2
21:41 64.4 °F /  18 °C 60.8 °F /  16 °C 29.76in /  1007.7hPa Calm     88% 0.00in /  0mm 0.0 W/m2
21:47 64.2 °F /  17.9 °C 61.0 °F /  16.1 °C 29.76in /  1007.7hPa Calm     89% 0.00in /  0mm 0.0 W/m2
21:53 64.2 °F /  17.9 °C 61.0 °F /  16.1 °C 29.76in /  1007.7hPa Calm     89% 0.00in /  0mm 0.0 W/m2
22:00 64.0 °F /  17.8 °C 60.8 °F /  16 °C 29.77in /  1008hPa Calm     89% 0.00in /  0mm 0.0 W/m2
22:06 63.9 °F /  17.7 °C 60.6 °F /  15.9 °C 29.77in /  1008hPa Calm     89% 0.00in /  0mm 0.0 W/m2
22:12 63.9 °F /  17.7 °C 60.8 °F /  16 °C 29.77in /  1008hPa Calm     90% 0.00in /  0mm 0.0 W/m2
22:18 63.7 °F /  17.6 °C 60.6 °F /  15.9 °C 29.77in /  1008hPa Calm     90% 0.00in /  0mm 0.0 W/m2
22:24 63.5 °F /  17.5 °C 60.4 °F /  15.8 °C 29.77in /  1008hPa Calm     90% 0.00in /  0mm 0.0 W/m2
22:30 63.5 °F /  17.5 °C 60.4 °F /  15.8 °C 29.76in /  1007.7hPa Calm   1.0mph /  1.6km/h 90% 0.00in /  0mm 0.0 W/m2
22:36 63.3 °F /  17.4 °C 60.3 °F /  15.7 °C 29.77in /  1008hPa Calm   1.0mph /  1.6km/h 90% 0.00in /  0mm 0.0 W/m2
22:43 63.1 °F /  17.3 °C 60.1 °F /  15.6 °C 29.76in /  1007.7hPa Calm     90% 0.00in /  0mm 0.0 W/m2
22:49 63.0 °F /  17.2 °C 59.9 °F /  15.5 °C 29.76in /  1007.7hPa Calm     90% 0.00in /  0mm 0.0 W/m2
22:55 63.0 °F /  17.2 °C 59.9 °F /  15.5 °C 29.76in /  1007.7hPa Calm     90% 0.00in /  0mm 0.0 W/m2
23:01 62.8 °F /  17.1 °C 59.7 °F /  15.4 °C 29.76in /  1007.7hPa Calm     90% 0.00in /  0mm 0.0 W/m2
23:07 62.8 °F /  17.1 °C 59.7 °F /  15.4 °C 29.76in /  1007.7hPa Calm     90% 0.00in /  0mm 0.0 W/m2
23:13 62.4 °F /  16.9 °C 59.4 °F /  15.2 °C 29.76in /  1007.7hPa Calm   1.0mph /  1.6km/h 90% 0.00in /  0mm 0.0 W/m2
23:19 62.4 °F /  16.9 °C 59.7 °F /  15.4 °C 29.76in /  1007.7hPa Calm   1.0mph /  1.6km/h 91% 0.00in /  0mm 0.0 W/m2
23:25 62.4 °F /  16.9 °C 59.7 °F /  15.4 °C 29.76in /  1007.7hPa Calm     91% 0.00in /  0mm 0.0 W/m2
23:32 62.2 °F /  16.8 °C 59.5 °F /  15.3 °C 29.76in /  1007.7hPa Calm     91% 0.00in /  0mm 0.0 W/m2
23:38 62.2 °F /  16.8 °C 59.5 °F /  15.3 °C 29.76in /  1007.7hPa Calm   1.0mph /  1.6km/h 91% 0.00in /  0mm 0.0 W/m2
23:44 62.1 °F /  16.7 °C 59.4 °F /  15.2 °C 29.75in /  1007.3hPa Calm     91% 0.00in /  0mm 0.0 W/m2
23:50 62.1 °F /  16.7 °C 59.4 °F /  15.2 °C 29.76in /  1007.7hPa Calm     91% 0.00in /  0mm 0.0 W/m2
23:56 61.9 °F /  16.6 °C 59.2 °F /  15.1 °C 29.76in /  1007.7hPa Calm     91% 0.00in /  0mm 0.0 W/m2
Olympia, Windhoek, Namibia
Compliments of Weather Underground - 3 mb